createdAt,value
2019-05-26T00:00:15.867Z,42.10
2019-05-26T00:02:44.272Z,44.13
2019-05-26T00:05:12.794Z,42.93
2019-05-26T00:07:41.183Z,43.77
2019-05-26T00:10:10.281Z,43.13
2019-05-26T00:12:39.013Z,42.57
2019-05-26T00:15:07.711Z,41.80
2019-05-26T00:17:36.117Z,45.50
2019-05-26T00:20:07.192Z,43.07
2019-05-26T00:22:35.590Z,43.77
2019-05-26T00:25:05.397Z,41.30
2019-05-26T00:27:33.791Z,42.10
2019-05-26T00:30:02.222Z,44.53
2019-05-26T00:32:30.624Z,43.63
2019-05-26T00:34:59.057Z,45.50
2019-05-26T00:37:27.469Z,43.90
2019-05-26T00:39:55.980Z,42.77
2019-05-26T00:42:24.384Z,44.60
2019-05-26T00:44:52.790Z,42.23
2019-05-26T00:47:21.294Z,43.97
2019-05-26T00:49:49.692Z,45.60
2019-05-26T00:52:18.121Z,46.30
2019-05-26T00:54:46.523Z,44.73
2019-05-26T00:57:14.960Z,45.30
2019-05-26T00:59:43.355Z,49.47
2019-05-26T01:02:17.606Z,45.70
2019-05-26T01:04:46.010Z,46.37
2019-05-26T01:07:14.508Z,46.80
2019-05-26T01:09:42.924Z,46.87
2019-05-26T01:12:11.406Z,47.10
2019-05-26T01:14:39.808Z,48.57
2019-05-26T01:17:08.306Z,48.50
2019-05-26T01:19:36.708Z,47.83
2019-05-26T01:22:05.140Z,47.37
2019-05-26T01:24:33.544Z,49.70
2019-05-26T01:27:01.982Z,47.20
2019-05-26T01:29:30.379Z,49.87
2019-05-26T01:31:58.809Z,48.00
2019-05-26T01:34:27.221Z,48.97
2019-05-26T01:36:55.794Z,52.60
2019-05-26T01:39:24.265Z,49.47
2019-05-26T01:41:52.694Z,46.77
2019-05-26T01:44:21.096Z,50.57
2019-05-26T01:46:49.529Z,48.37
2019-05-26T01:49:17.935Z,51.20
2019-05-26T01:51:46.363Z,50.23
2019-05-26T01:54:14.770Z,49.73
2019-05-26T01:56:43.167Z,47.47
2019-05-26T01:59:11.608Z,46.97
2019-05-26T02:01:40.048Z,49.67
2019-05-26T02:04:08.475Z,52.10
2019-05-26T02:06:36.882Z,51.60
2019-05-26T02:09:07.726Z,48.97
2019-05-26T02:11:36.129Z,49.90
2019-05-26T02:14:04.630Z,53.30
2019-05-26T02:16:33.035Z,54.63
2019-05-26T02:19:01.518Z,52.97
2019-05-26T02:21:29.950Z,53.10
2019-05-26T02:23:58.376Z,51.97
2019-05-26T02:26:26.782Z,49.10
2019-05-26T02:28:55.212Z,52.57
2019-05-26T02:31:23.687Z,46.67
2019-05-26T02:33:52.117Z,48.80
2019-05-26T02:36:20.518Z,48.63
2019-05-26T02:39:01.348Z,54.20
2019-05-26T02:41:19.074Z,48.23
2019-05-26T02:43:47.503Z,49.67
2019-05-26T02:46:15.898Z,56.53
2019-05-26T02:48:44.335Z,47.20
2019-05-26T02:51:12.740Z,49.03
2019-05-26T02:53:41.172Z,51.33
2019-05-26T02:56:09.644Z,48.77
2019-05-26T02:58:38.071Z,49.87
2019-05-26T03:01:06.479Z,49.50
2019-05-26T03:03:34.981Z,47.90
2019-05-26T03:06:04.120Z,48.63
2019-05-26T03:08:33.345Z,45.80
2019-05-26T03:11:02.194Z,51.60
2019-05-26T03:13:33.608Z,50.33
2019-05-26T03:16:02.985Z,46.07
2019-05-26T03:18:33.081Z,45.83
2019-05-26T03:21:03.329Z,47.77
2019-05-26T03:23:32.375Z,48.43
2019-05-26T03:26:00.871Z,51.00
2019-05-26T03:28:29.282Z,49.23
2019-05-26T03:30:57.707Z,48.50
2019-05-26T03:33:26.122Z,47.23
2019-05-26T03:35:54.542Z,49.30
2019-05-26T03:38:22.947Z,48.40
2019-05-26T03:40:51.510Z,52.50
2019-05-26T03:43:19.913Z,49.63
2019-05-26T03:46:08.519Z,50.77
2019-05-26T03:48:36.913Z,50.70
2019-05-26T03:51:05.352Z,52.17
2019-05-26T03:53:33.757Z,51.57
2019-05-26T03:56:02.261Z,48.00
2019-05-26T03:58:30.728Z,53.97
2019-05-26T04:00:59.157Z,47.80
2019-05-26T04:03:27.575Z,51.20
2019-05-26T04:05:55.996Z,52.57
2019-05-26T04:08:24.407Z,48.87
2019-05-26T04:10:52.902Z,51.20
2019-05-26T04:13:21.546Z,47.17
2019-05-26T04:15:50.004Z,53.50
2019-05-26T04:18:18.393Z,49.23
2019-05-26T04:20:46.822Z,59.73
2019-05-26T04:23:15.224Z,48.23
2019-05-26T04:25:43.651Z,47.87
2019-05-26T04:28:12.066Z,47.63
2019-05-26T04:30:40.483Z,47.60
2019-05-26T04:33:08.887Z,49.67
2019-05-26T04:35:37.315Z,46.90
2019-05-26T04:38:05.729Z,49.03
2019-05-26T04:40:34.160Z,47.27
2019-05-26T04:43:02.567Z,53.47
2019-05-26T04:45:30.993Z,54.07
2019-05-26T04:47:59.603Z,46.37
2019-05-26T04:50:28.040Z,47.47
2019-05-26T04:53:06.063Z,49.90
2019-05-26T04:55:26.581Z,51.23
2019-05-26T04:57:55.000Z,47.77
2019-05-26T05:00:23.476Z,50.43
2019-05-26T05:02:51.908Z,46.43
2019-05-26T05:05:20.375Z,48.13
2019-05-26T05:07:48.811Z,46.43
2019-05-26T05:10:17.291Z,48.23
2019-05-26T05:12:45.894Z,51.17
2019-05-26T05:15:14.441Z,49.10
2019-05-26T05:17:42.882Z,56.30
2019-05-26T05:20:12.205Z,54.03
2019-05-26T05:22:40.637Z,49.40
2019-05-26T05:25:14.658Z,46.90
2019-05-26T05:27:39.290Z,46.80
2019-05-26T05:30:08.830Z,50.43
2019-05-26T05:32:37.272Z,45.23
2019-05-26T05:35:07.792Z,45.37
2019-05-26T05:37:36.230Z,47.80
2019-05-26T05:40:06.871Z,45.37
2019-05-26T05:42:35.304Z,46.87
2019-05-26T05:45:04.852Z,47.40
2019-05-26T05:47:33.294Z,48.33
2019-05-26T05:50:01.721Z,45.33
2019-05-26T05:52:30.132Z,50.20
2019-05-26T05:54:58.538Z,50.43
2019-05-26T05:57:26.973Z,48.43
2019-05-26T05:59:55.385Z,44.93
2019-05-26T06:02:23.816Z,45.57
2019-05-26T06:04:52.227Z,46.23
2019-05-26T06:07:20.669Z,47.10
2019-05-26T06:09:49.082Z,45.40
2019-05-26T06:12:17.494Z,45.77
2019-05-26T06:14:45.942Z,47.23
2019-05-26T06:17:14.341Z,46.40
2019-05-26T06:19:42.774Z,43.47
2019-05-26T06:22:11.181Z,45.37
2019-05-26T06:24:39.610Z,45.20
2019-05-26T06:27:08.016Z,44.80
2019-05-26T06:29:36.459Z,44.70
2019-05-26T06:32:05.449Z,47.13
2019-05-26T06:34:34.147Z,43.37
2019-05-26T06:37:02.555Z,44.93
2019-05-26T06:39:30.987Z,45.20
2019-05-26T06:41:59.392Z,46.30
2019-05-26T06:44:27.829Z,43.67
2019-05-26T06:46:56.310Z,44.20
2019-05-26T06:49:24.738Z,46.87
2019-05-26T06:51:53.150Z,46.17
2019-05-26T06:54:21.585Z,45.43
2019-05-26T06:56:49.994Z,45.27
2019-05-26T06:59:18.422Z,45.03
2019-05-26T07:01:46.826Z,46.63
2019-05-26T07:04:15.261Z,43.87
2019-05-26T07:06:43.677Z,46.57
2019-05-26T07:09:12.108Z,45.57
2019-05-26T07:11:53.789Z,44.60
2019-05-26T07:14:10.680Z,46.50
2019-05-26T07:16:39.100Z,42.77
2019-05-26T07:19:07.599Z,45.90
2019-05-26T07:21:36.007Z,42.30
2019-05-26T07:24:04.723Z,44.03
2019-05-26T07:26:33.203Z,45.80
2019-05-26T07:29:01.609Z,43.33
2019-05-26T07:31:30.043Z,43.97
2019-05-26T07:33:58.452Z,44.00
2019-05-26T07:36:26.890Z,41.63
2019-05-26T07:38:55.311Z,42.70
2019-05-26T07:41:23.806Z,45.73
2019-05-26T07:43:52.212Z,41.87
2019-05-26T07:46:20.646Z,42.00
2019-05-26T07:48:49.053Z,43.00
2019-05-26T07:51:17.481Z,43.07
2019-05-26T07:53:45.895Z,48.67
2019-05-26T07:56:14.395Z,42.03
2019-05-26T07:58:42.801Z,44.20
2019-05-26T08:01:11.233Z,45.63
2019-05-26T08:03:39.636Z,44.53
2019-05-26T08:06:08.070Z,41.67
2019-05-26T08:08:36.475Z,44.30
2019-05-26T08:11:04.979Z,47.97
2019-05-26T08:13:33.385Z,47.27
2019-05-26T08:16:01.806Z,50.13
2019-05-26T08:18:30.275Z,49.60
2019-05-26T08:20:58.712Z,57.83
2019-05-26T08:23:27.117Z,45.23
2019-05-26T08:25:55.659Z,47.63
2019-05-26T08:28:24.333Z,46.50
2019-05-26T08:30:52.766Z,47.80
2019-05-26T08:33:21.242Z,52.90
2019-05-26T08:35:49.686Z,48.80
2019-05-26T08:38:18.093Z,45.60
2019-05-26T08:40:46.521Z,48.87
2019-05-26T08:43:14.926Z,44.53
2019-05-26T08:45:43.396Z,48.67
2019-05-26T08:48:11.853Z,46.77
2019-05-26T08:50:40.234Z,45.57
2019-05-26T08:53:08.670Z,46.20
2019-05-26T08:55:37.074Z,45.20
2019-05-26T08:58:05.851Z,42.67
2019-05-26T09:00:34.341Z,42.17
2019-05-26T09:03:03.610Z,46.17
2019-05-26T09:05:32.015Z,41.30
2019-05-26T09:08:00.447Z,45.30
2019-05-26T09:10:28.926Z,43.47
2019-05-26T09:13:01.293Z,42.43
2019-05-26T09:15:27.490Z,42.60
2019-05-26T09:17:55.913Z,43.37
2019-05-26T09:20:24.455Z,42.30
2019-05-26T09:22:52.889Z,46.50
2019-05-26T09:25:21.302Z,42.57
2019-05-26T09:27:49.730Z,44.13
2019-05-26T09:30:18.679Z,41.07
2019-05-26T09:32:47.170Z,45.37
2019-05-26T09:35:15.637Z,41.73
2019-05-26T09:37:44.064Z,48.33
2019-05-26T09:40:12.706Z,41.87
2019-05-26T09:42:41.135Z,43.13
2019-05-26T09:45:10.186Z,42.40
2019-05-26T09:47:38.682Z,44.60
2019-05-26T09:50:08.320Z,46.17
2019-05-26T09:52:37.289Z,40.30
2019-05-26T09:55:07.601Z,41.23
2019-05-26T09:57:36.227Z,39.90
2019-05-26T10:00:06.540Z,47.80
2019-05-26T10:02:35.085Z,39.50
2019-05-26T10:05:04.852Z,40.20
2019-05-26T10:07:33.256Z,40.10
2019-05-26T10:10:01.689Z,44.63
2019-05-26T10:12:30.095Z,46.83
2019-05-26T10:14:58.526Z,44.67
2019-05-26T10:17:26.937Z,40.93
2019-05-26T10:19:55.360Z,45.53
2019-05-26T10:22:23.764Z,40.77
2019-05-26T10:24:52.195Z,48.03
2019-05-26T10:27:20.600Z,40.17
2019-05-26T10:29:49.027Z,42.93
2019-05-26T10:32:17.433Z,40.00
2019-05-26T10:34:45.868Z,40.67
2019-05-26T10:37:14.266Z,39.60
2019-05-26T10:39:45.043Z,40.03
2019-05-26T10:42:12.834Z,41.70
2019-05-26T10:44:41.257Z,38.67
2019-05-26T10:47:09.665Z,39.77
2019-05-26T10:49:38.416Z,40.10
2019-05-26T10:52:07.014Z,43.00
2019-05-26T10:54:35.448Z,40.70
2019-05-26T10:57:03.923Z,42.30
2019-05-26T10:59:32.357Z,70.43
2019-05-26T11:02:00.766Z,41.67
2019-05-26T11:04:29.194Z,40.07
2019-05-26T11:06:57.597Z,42.50
2019-05-26T11:09:26.035Z,47.23
2019-05-26T11:11:54.434Z,66.17
2019-05-26T11:14:22.842Z,51.37
2019-05-26T11:16:51.491Z,40.70
2019-05-26T11:19:19.963Z,57.03
2019-05-26T11:21:48.395Z,41.37
2019-05-26T11:24:16.799Z,44.03
2019-05-26T11:26:45.299Z,41.63
2019-05-26T11:29:13.703Z,40.27
2019-05-26T11:31:42.125Z,44.53
2019-05-26T11:34:10.525Z,43.77
2019-05-26T11:36:39.031Z,40.90
2019-05-26T11:39:08.372Z,45.30
2019-05-26T11:41:36.805Z,40.50
2019-05-26T11:44:17.042Z,48.20
2019-05-26T11:46:35.432Z,41.47
2019-05-26T11:49:03.901Z,40.20
2019-05-26T11:51:32.336Z,42.40
2019-05-26T11:54:00.733Z,42.93
2019-05-26T11:56:29.170Z,44.13
2019-05-26T11:58:57.572Z,50.10
2019-05-26T12:01:26.001Z,40.40
2019-05-26T12:03:54.406Z,41.77
2019-05-26T12:06:22.907Z,39.37
2019-05-26T12:08:51.323Z,42.30
2019-05-26T12:11:19.827Z,39.30
2019-05-26T12:13:48.229Z,39.07
2019-05-26T12:16:16.664Z,40.83
2019-05-26T12:18:45.061Z,41.70
2019-05-26T12:21:13.478Z,42.70
2019-05-26T12:23:41.906Z,41.50
2019-05-26T12:26:10.318Z,39.70
2019-05-26T12:28:38.820Z,43.40
2019-05-26T12:31:07.231Z,42.20
2019-05-26T12:33:35.658Z,44.40
2019-05-26T12:36:04.427Z,45.73
2019-05-26T12:38:34.499Z,42.00
2019-05-26T12:41:02.914Z,42.83
2019-05-26T12:43:31.341Z,43.50
2019-05-26T12:45:59.745Z,46.23
2019-05-26T12:48:28.180Z,43.93
2019-05-26T12:50:56.655Z,48.23
2019-05-26T12:53:25.087Z,41.20
2019-05-26T12:55:53.484Z,44.00
2019-05-26T12:58:21.914Z,41.93
2019-05-26T13:00:54.660Z,41.40
2019-05-26T13:03:20.470Z,43.70
2019-05-26T13:05:48.868Z,45.60
2019-05-26T13:08:17.295Z,54.27
2019-05-26T13:10:45.707Z,44.07
2019-05-26T13:13:14.144Z,47.60
2019-05-26T13:15:42.546Z,41.70
2019-05-26T13:18:10.977Z,40.80
2019-05-26T13:20:39.515Z,40.43
2019-05-26T13:23:07.945Z,44.20
2019-05-26T13:25:36.358Z,41.57
2019-05-26T13:28:04.950Z,41.20
2019-05-26T13:30:34.686Z,42.30
2019-05-26T13:33:03.127Z,41.83
2019-05-26T13:35:31.532Z,41.93
2019-05-26T13:37:59.944Z,40.73
2019-05-26T13:40:29.724Z,40.10
2019-05-26T13:42:58.219Z,39.33
2019-05-26T13:45:26.657Z,39.87
2019-05-26T13:47:55.058Z,48.20
2019-05-26T13:50:23.560Z,41.07
2019-05-26T13:52:51.974Z,41.30
2019-05-26T13:55:21.254Z,41.67
2019-05-26T13:57:49.890Z,41.40
2019-05-26T14:00:18.849Z,40.20
2019-05-26T14:02:47.315Z,41.37
2019-05-26T14:05:16.913Z,39.10
2019-05-26T14:07:45.315Z,42.63
2019-05-26T14:10:14.089Z,39.90
2019-05-26T14:12:42.568Z,40.60
2019-05-26T14:15:11.373Z,44.73
2019-05-26T14:17:39.815Z,40.13
2019-05-26T14:20:09.285Z,38.40
2019-05-26T14:22:37.694Z,41.00
2019-05-26T14:25:07.057Z,39.20
2019-05-26T14:27:35.458Z,40.67
2019-05-26T14:30:05.128Z,39.57
2019-05-26T14:32:33.530Z,40.90
2019-05-26T14:35:01.977Z,38.33
2019-05-26T14:37:30.375Z,40.23
2019-05-26T14:39:58.798Z,39.80
2019-05-26T14:42:27.207Z,41.73
2019-05-26T14:44:55.645Z,40.90
2019-05-26T14:47:24.131Z,39.13
2019-05-26T14:49:52.531Z,42.00
2019-05-26T14:52:20.969Z,39.70
2019-05-26T14:54:49.372Z,40.80
2019-05-26T14:57:17.810Z,37.70
2019-05-26T14:59:46.232Z,38.97
2019-05-26T15:02:14.646Z,39.50
2019-05-26T15:04:43.075Z,38.87
2019-05-26T15:07:11.483Z,39.10
2019-05-26T15:09:39.885Z,40.20
2019-05-26T15:12:08.319Z,39.80
2019-05-26T15:14:36.725Z,41.83
2019-05-26T15:17:05.224Z,40.50
2019-05-26T15:19:33.633Z,41.17
2019-05-26T15:22:02.074Z,43.70
2019-05-26T15:24:30.459Z,39.67
2019-05-26T15:26:58.886Z,40.30
2019-05-26T15:29:27.292Z,37.77
2019-05-26T15:31:55.721Z,40.17
2019-05-26T15:34:24.127Z,39.77
2019-05-26T15:36:52.550Z,38.77
2019-05-26T15:39:20.961Z,38.47
2019-05-26T15:41:49.360Z,43.57
2019-05-26T15:44:17.786Z,38.77
2019-05-26T15:46:46.194Z,40.40
2019-05-26T15:49:14.631Z,39.37
2019-05-26T15:51:43.032Z,41.30
2019-05-26T15:54:11.470Z,40.40
2019-05-26T15:56:39.865Z,41.50
2019-05-26T15:59:08.300Z,41.10
2019-05-26T16:01:36.704Z,40.90
2019-05-26T16:04:05.216Z,41.80
2019-05-26T16:06:33.614Z,39.63
2019-05-26T16:09:02.039Z,40.70
2019-05-26T16:11:30.445Z,41.80
2019-05-26T16:13:58.904Z,41.40
2019-05-26T16:16:40.166Z,40.67
2019-05-26T16:18:57.453Z,40.70
2019-05-26T16:21:28.298Z,40.77
2019-05-26T16:23:56.012Z,42.60
2019-05-26T16:26:24.418Z,44.03
2019-05-26T16:28:52.847Z,44.50
2019-05-26T16:31:21.247Z,39.37
2019-05-26T16:33:49.749Z,42.10
2019-05-26T16:36:21.135Z,40.67
2019-05-26T16:38:48.318Z,43.97
2019-05-26T16:41:16.721Z,42.87
2019-05-26T16:43:45.155Z,45.13
2019-05-26T16:46:13.562Z,43.10
2019-05-26T16:48:41.992Z,42.80
2019-05-26T16:51:10.397Z,44.20
2019-05-26T16:53:38.847Z,39.30
2019-05-26T16:56:07.247Z,44.00
2019-05-26T16:58:35.656Z,41.80
2019-05-26T17:01:04.088Z,42.67
2019-05-26T17:03:32.503Z,39.97
2019-05-26T17:06:07.804Z,44.00
2019-05-26T17:08:31.070Z,41.43
2019-05-26T17:10:59.502Z,42.13
2019-05-26T17:13:27.909Z,41.00
2019-05-26T17:15:56.343Z,39.37
2019-05-26T17:18:24.751Z,40.40
2019-05-26T17:20:53.190Z,39.37
2019-05-26T17:23:21.647Z,43.37
2019-05-26T17:25:50.075Z,41.70
2019-05-26T17:28:18.475Z,42.33
2019-05-26T17:30:46.905Z,40.90
2019-05-26T17:33:15.304Z,39.50
2019-05-26T17:35:43.738Z,39.17
2019-05-26T17:38:12.141Z,38.97
2019-05-26T17:40:40.581Z,39.87
2019-05-26T17:43:08.979Z,42.10
2019-05-26T17:45:37.413Z,42.17
2019-05-26T17:48:05.814Z,40.13
2019-05-26T17:50:34.317Z,40.17
2019-05-26T17:53:02.723Z,41.20
2019-05-26T17:55:31.154Z,40.30
2019-05-26T17:57:59.561Z,43.60
2019-05-26T18:00:28.040Z,39.80
2019-05-26T18:02:56.467Z,42.70
2019-05-26T18:05:24.869Z,41.00
2019-05-26T18:07:53.299Z,45.40
2019-05-26T18:10:21.771Z,40.03
2019-05-26T18:12:50.200Z,41.27
2019-05-26T18:15:19.064Z,42.50
2019-05-26T18:17:47.964Z,42.03
2019-05-26T18:20:16.622Z,40.23
2019-05-26T18:22:45.098Z,40.97
2019-05-26T18:25:13.553Z,46.63
2019-05-26T18:27:41.973Z,41.90
2019-05-26T18:30:10.848Z,43.67
2019-05-26T18:32:39.342Z,41.53
2019-05-26T18:35:08.189Z,43.27
2019-05-26T18:37:36.618Z,41.50
2019-05-26T18:40:06.295Z,42.43
2019-05-26T18:42:34.725Z,41.97
2019-05-26T18:45:03.771Z,41.13
2019-05-26T18:47:32.202Z,50.03
2019-05-26T18:50:00.603Z,41.20
2019-05-26T18:52:29.031Z,41.40
2019-05-26T18:54:57.440Z,44.57
2019-05-26T18:57:25.874Z,45.23
2019-05-26T18:59:54.274Z,41.93
2019-05-26T19:02:22.704Z,42.00
2019-05-26T19:04:51.116Z,45.60
2019-05-26T19:07:19.542Z,42.23
2019-05-26T19:09:47.944Z,53.57
2019-05-26T19:12:16.850Z,42.30
2019-05-26T19:14:45.246Z,41.00
2019-05-26T19:17:13.798Z,42.07
2019-05-26T19:19:42.233Z,50.50
2019-05-26T19:22:10.701Z,42.60
2019-05-26T19:24:39.136Z,43.40
2019-05-26T19:27:07.679Z,43.27
2019-05-26T19:29:36.113Z,47.80
2019-05-26T19:32:04.857Z,44.10
2019-05-26T19:34:33.295Z,44.93
2019-05-26T19:37:01.715Z,44.20
2019-05-26T19:39:30.144Z,47.40
2019-05-26T19:41:58.554Z,50.83
2019-05-26T19:44:26.993Z,49.77
2019-05-26T19:46:55.413Z,50.00
2019-05-26T19:49:23.854Z,51.20
2019-05-26T19:51:52.264Z,52.97
2019-05-26T19:54:20.770Z,50.73
2019-05-26T19:56:49.187Z,54.03
2019-05-26T19:59:17.635Z,57.17
2019-05-26T20:01:46.043Z,54.37
2019-05-26T20:04:14.954Z,52.60
2019-05-26T20:06:44.123Z,54.47
2019-05-26T20:09:12.658Z,58.63
2019-05-26T20:11:41.070Z,58.90
2019-05-26T20:14:09.517Z,55.50
2019-05-26T20:16:37.933Z,57.30
2019-05-26T20:19:06.411Z,57.60
2019-05-26T20:21:34.851Z,59.60
2019-05-26T20:24:03.329Z,61.70
2019-05-26T20:26:31.769Z,61.77
2019-05-26T20:29:00.186Z,62.27
2019-05-26T20:31:28.622Z,61.60
2019-05-26T20:33:57.030Z,61.27
2019-05-26T20:36:25.472Z,62.77
2019-05-26T20:38:53.948Z,63.47
2019-05-26T20:41:22.384Z,62.73
2019-05-26T20:43:50.798Z,64.10
2019-05-26T20:46:19.233Z,63.17
2019-05-26T20:48:47.646Z,61.97
2019-05-26T20:51:16.082Z,60.30
2019-05-26T20:53:44.498Z,59.87
2019-05-26T20:56:12.934Z,61.10
2019-05-26T20:58:41.346Z,59.40
2019-05-26T21:01:09.786Z,57.77
2019-05-26T21:03:38.196Z,59.17
2019-05-26T21:06:06.636Z,53.07
2019-05-26T21:08:35.046Z,55.00
2019-05-26T21:11:03.491Z,54.97
2019-05-26T21:13:31.909Z,54.13
2019-05-26T21:16:00.346Z,56.03
2019-05-26T21:18:28.756Z,56.23
2019-05-26T21:20:57.198Z,57.80
2019-05-26T21:23:25.607Z,62.47
2019-05-26T21:25:54.050Z,57.57
2019-05-26T21:28:22.464Z,60.17
2019-05-26T21:30:50.905Z,59.87
2019-05-26T21:33:19.317Z,55.10
2019-05-26T21:35:47.749Z,55.83
2019-05-26T21:38:16.165Z,53.37
2019-05-26T21:40:44.574Z,61.33
2019-05-26T21:43:13.017Z,56.37
2019-05-26T21:45:41.436Z,62.23
2019-05-26T21:48:09.875Z,57.57
2019-05-26T21:50:38.364Z,58.23
2019-05-26T21:53:06.803Z,57.70
2019-05-26T21:55:35.223Z,58.27
2019-05-26T21:58:03.658Z,58.37
2019-05-26T22:00:36.931Z,62.80
2019-05-26T22:03:05.614Z,59.10
2019-05-26T22:05:34.090Z,60.47
2019-05-26T22:08:02.534Z,58.80
2019-05-26T22:10:30.962Z,58.33
2019-05-26T22:12:59.405Z,63.67
2019-05-26T22:15:27.821Z,62.50
2019-05-26T22:17:56.255Z,59.57
2019-05-26T22:20:24.670Z,62.00
2019-05-26T22:22:53.118Z,66.13
2019-05-26T22:25:21.561Z,62.63
2019-05-26T22:27:49.971Z,61.57
2019-05-26T22:30:18.560Z,63.73
2019-05-26T22:32:46.989Z,63.10
2019-05-26T22:35:15.402Z,67.17
2019-05-26T22:37:43.836Z,65.00
2019-05-26T22:40:12.394Z,68.50
2019-05-26T22:42:40.908Z,65.17
2019-05-26T22:45:09.553Z,67.53
2019-05-26T22:47:37.990Z,67.20
2019-05-26T22:50:08.838Z,66.20
2019-05-26T22:52:37.277Z,68.37
2019-05-26T22:55:09.404Z,63.57
2019-05-26T22:57:37.841Z,68.80
2019-05-26T23:00:10.540Z,69.00
2019-05-26T23:02:38.981Z,69.37
2019-05-26T23:05:08.135Z,69.70
2019-05-26T23:07:36.579Z,70.40
2019-05-26T23:10:09.360Z,67.10
2019-05-26T23:12:37.847Z,70.30
2019-05-26T23:15:08.428Z,69.47
2019-05-26T23:17:36.838Z,72.03
2019-05-26T23:20:07.789Z,67.93
2019-05-26T23:22:36.192Z,68.50
2019-05-26T23:25:05.668Z,69.00
2019-05-26T23:27:34.080Z,69.87
2019-05-26T23:30:03.090Z,67.57
2019-05-26T23:32:31.514Z,69.77
2019-05-26T23:35:00.016Z,68.40
2019-05-26T23:37:28.424Z,67.93
2019-05-26T23:39:56.866Z,70.63
2019-05-26T23:42:25.281Z,71.17
2019-05-26T23:44:53.720Z,73.23
2019-05-26T23:47:22.120Z,71.63
2019-05-26T23:49:50.560Z,84.83
2019-05-26T23:52:19.619Z,75.47
2019-05-26T23:54:48.087Z,69.10
2019-05-26T23:57:16.495Z,72.50
2019-05-26T23:59:44.925Z,68.70
